createdAt,value
2022-09-20T00:00:47.278Z,14.63
2022-09-20T00:03:15.228Z,19.73
2022-09-20T00:05:43.916Z,16.50
2022-09-20T00:08:12.991Z,8.90
2022-09-20T00:10:39.640Z,16.58
2022-09-20T00:13:07.642Z,16.08
2022-09-20T00:15:34.787Z,11.05
2022-09-20T00:18:01.383Z,19.98
2022-09-20T00:20:28.034Z,10.50
2022-09-20T00:22:54.650Z,7.30
2022-09-20T00:25:22.448Z,9.20
2022-09-20T00:27:49.080Z,13.75
2022-09-20T00:30:15.908Z,12.98
2022-09-20T00:32:42.538Z,15.25
2022-09-20T00:35:10.751Z,21.90
2022-09-20T00:37:39.198Z,12.65
2022-09-20T00:40:09.027Z,4.75
2022-09-20T00:42:35.967Z,7.28
2022-09-20T00:45:29.668Z,11.15
2022-09-20T00:48:21.047Z,9.57
2022-09-20T00:50:51.696Z,8.02
2022-09-20T00:53:45.388Z,13.25
2022-09-20T00:56:17.984Z,12.25
2022-09-20T00:58:49.807Z,9.43
2022-09-20T01:01:16.463Z,16.83
2022-09-20T01:03:43.931Z,11.13
2022-09-20T01:06:12.171Z,19.10
2022-09-20T01:08:39.043Z,17.80
2022-09-20T01:11:05.605Z,13.75
2022-09-20T01:13:32.263Z,19.13
2022-09-20T01:16:00.417Z,18.98
2022-09-20T01:18:28.373Z,13.35
2022-09-20T01:20:55.873Z,8.65
2022-09-20T01:23:42.797Z,14.82
2022-09-20T01:26:34.511Z,7.72
2022-09-20T01:29:13.876Z,6.30
2022-09-20T01:31:45.813Z,17.65
2022-09-20T01:34:18.857Z,13.85
2022-09-20T01:36:57.953Z,12.73
2022-09-20T01:39:48.906Z,13.57
2022-09-20T01:42:15.667Z,18.95
2022-09-20T01:45:07.477Z,11.98
2022-09-20T01:47:52.170Z,19.17
2022-09-20T01:50:40.261Z,7.45
2022-09-20T01:53:31.665Z,16.35
2022-09-20T01:56:20.184Z,15.52
2022-09-20T01:59:23.313Z,7.78
2022-09-20T02:01:54.030Z,12.25
2022-09-20T02:04:26.511Z,7.75
2022-09-20T02:06:57.112Z,15.20
2022-09-20T02:09:49.351Z,8.77
2022-09-20T02:12:54.433Z,6.68
2022-09-20T02:15:46.644Z,10.65
2022-09-20T02:18:25.334Z,9.15
2022-09-20T02:21:14.185Z,11.10
2022-09-20T02:23:58.499Z,12.95
2022-09-20T02:27:03.019Z,13.55
2022-09-20T02:29:52.394Z,9.15
2022-09-20T02:32:34.175Z,8.38
2022-09-20T02:35:18.795Z,14.52
2022-09-20T02:38:05.773Z,9.00
2022-09-20T02:40:47.534Z,11.23
2022-09-20T02:43:17.104Z,15.20
2022-09-20T02:45:57.072Z,10.68
2022-09-20T02:48:29.977Z,16.17
2022-09-20T02:51:04.525Z,12.50
2022-09-20T02:53:38.371Z,11.10
2022-09-20T02:56:29.761Z,18.10
2022-09-20T02:59:05.670Z,11.82
2022-09-20T03:01:45.586Z,8.48
2022-09-20T03:04:27.138Z,5.60
2022-09-20T03:06:56.610Z,8.95
2022-09-20T03:09:28.299Z,8.95
2022-09-20T03:12:00.931Z,12.45
2022-09-20T03:14:40.855Z,11.95
2022-09-20T03:17:24.761Z,10.68
2022-09-20T03:20:03.475Z,8.57
2022-09-20T03:22:29.997Z,17.95
2022-09-20T03:24:56.556Z,10.95
2022-09-20T03:27:29.736Z,16.63
2022-09-20T03:30:15.154Z,10.10
2022-09-20T03:32:44.580Z,8.52
2022-09-20T03:35:46.360Z,17.08
2022-09-20T03:38:43.939Z,15.43
2022-09-20T03:41:28.654Z,12.40
2022-09-20T03:43:58.182Z,17.13
2022-09-20T03:46:41.719Z,21.30
2022-09-20T03:49:32.312Z,19.75
2022-09-20T03:52:35.476Z,15.38
2022-09-20T03:55:26.545Z,18.33
2022-09-20T03:58:31.416Z,11.52
2022-09-20T04:01:15.529Z,14.38
2022-09-20T04:03:42.067Z,17.40
2022-09-20T04:06:30.315Z,19.73
2022-09-20T04:09:09.201Z,20.98
2022-09-20T04:11:44.407Z,18.48
2022-09-20T04:14:19.687Z,14.43
2022-09-20T04:16:53.575Z,18.92
2022-09-20T04:19:33.575Z,19.55
2022-09-20T04:22:01.749Z,19.08
2022-09-20T04:24:34.328Z,17.38
2022-09-20T04:27:10.358Z,18.00
2022-09-20T04:29:45.426Z,19.98
2022-09-20T04:32:31.035Z,12.50
2022-09-20T04:35:48.377Z,15.38
2022-09-20T04:38:20.367Z,26.67
2022-09-20T04:41:28.799Z,20.17
2022-09-20T04:44:21.882Z,27.10
2022-09-20T04:47:08.845Z,25.60
2022-09-20T04:50:10.956Z,21.38
2022-09-20T04:53:16.932Z,29.70
2022-09-20T04:56:23.013Z,15.52
2022-09-20T04:59:08.862Z,18.25
2022-09-20T05:01:57.073Z,16.75
2022-09-20T05:04:54.487Z,20.85
2022-09-20T05:07:30.333Z,22.83
2022-09-20T05:10:30.630Z,19.65
2022-09-20T05:13:01.108Z,13.20
2022-09-20T05:16:05.263Z,18.48
2022-09-20T05:18:51.100Z,22.02
2022-09-20T05:21:50.567Z,23.95
2022-09-20T05:24:48.257Z,22.88
2022-09-20T05:27:36.653Z,24.40
2022-09-20T05:30:31.663Z,22.10
2022-09-20T05:33:12.777Z,28.55
2022-09-20T05:35:50.690Z,14.70
2022-09-20T05:38:34.670Z,21.88
2022-09-20T05:41:31.889Z,17.95
2022-09-20T05:44:08.560Z,16.67
2022-09-20T05:47:08.839Z,17.88
2022-09-20T05:49:57.179Z,16.13
2022-09-20T05:52:34.027Z,17.77
2022-09-20T05:55:13.773Z,25.05
2022-09-20T05:57:56.817Z,15.77
2022-09-20T06:00:28.991Z,17.13
2022-09-20T06:03:23.229Z,19.92
2022-09-20T06:06:02.671Z,22.50
2022-09-20T06:09:02.380Z,28.80
2022-09-20T06:11:44.734Z,27.15
2022-09-20T06:14:27.744Z,21.83
2022-09-20T06:17:32.250Z,16.35
2022-09-20T06:20:09.859Z,20.02
2022-09-20T06:22:51.889Z,28.75
2022-09-20T06:25:47.696Z,23.52
2022-09-20T06:28:21.620Z,20.35
2022-09-20T06:30:50.485Z,21.00
2022-09-20T06:33:21.658Z,15.23
2022-09-20T06:36:19.628Z,13.63
2022-09-20T06:39:13.729Z,12.18
2022-09-20T06:41:41.032Z,17.52
2022-09-20T06:44:10.942Z,14.75
2022-09-20T06:46:38.499Z,14.50
2022-09-20T06:49:08.470Z,15.68
2022-09-20T06:51:37.481Z,14.35
2022-09-20T06:54:06.039Z,13.65
2022-09-20T06:56:37.076Z,14.27
2022-09-20T06:59:04.768Z,14.02
2022-09-20T07:01:31.572Z,14.65
2022-09-20T07:03:58.947Z,13.85
2022-09-20T07:06:28.975Z,6.32
2022-09-20T07:08:55.695Z,15.30
2022-09-20T07:11:23.259Z,14.55
2022-09-20T07:13:55.326Z,12.63
2022-09-20T07:16:22.180Z,10.98
2022-09-20T07:18:49.126Z,20.52
2022-09-20T07:21:17.587Z,13.77
2022-09-20T07:23:48.607Z,12.45
2022-09-20T07:26:26.915Z,12.43
2022-09-20T07:28:54.018Z,12.20
2022-09-20T07:31:29.702Z,11.50
2022-09-20T07:33:56.487Z,11.43
2022-09-20T07:36:23.647Z,6.90
2022-09-20T07:38:51.680Z,8.55
2022-09-20T07:41:19.175Z,6.68
2022-09-20T07:43:46.638Z,16.27
2022-09-20T07:46:13.734Z,9.75
2022-09-20T07:48:41.166Z,5.85
2022-09-20T07:51:12.919Z,7.97
2022-09-20T07:53:40.414Z,8.35
2022-09-20T07:56:11.302Z,6.75
2022-09-20T07:58:38.247Z,5.75
2022-09-20T08:01:10.117Z,6.72
2022-09-20T08:03:37.086Z,11.77
2022-09-20T08:06:09.123Z,5.72
2022-09-20T08:08:40.641Z,4.38
2022-09-20T08:11:13.485Z,8.20
2022-09-20T08:16:32.419Z,10.75
2022-09-20T08:19:01.106Z,9.23
2022-09-20T08:21:31.630Z,6.38
2022-09-20T08:23:58.896Z,8.38
2022-09-20T08:26:26.866Z,7.93
2022-09-20T08:28:55.788Z,7.85
2022-09-20T08:31:26.205Z,5.57
2022-09-20T08:33:54.195Z,7.35
2022-09-20T08:36:23.108Z,5.57
2022-09-20T08:41:58.802Z,3.70
2022-09-20T08:44:35.078Z,6.10
2022-09-20T08:47:06.057Z,9.88
2022-09-20T08:49:33.557Z,10.60
2022-09-20T08:52:02.200Z,7.07
2022-09-20T08:54:32.798Z,1.83
2022-09-20T08:57:05.424Z,6.20
2022-09-20T08:59:32.489Z,2.50
2022-09-20T09:01:59.947Z,6.70
2022-09-20T09:04:35.605Z,6.05
2022-09-20T09:07:03.130Z,5.13
2022-09-20T09:09:30.872Z,4.88
2022-09-20T09:11:58.793Z,5.15
2022-09-20T09:14:44.255Z,11.75
2022-09-20T09:17:12.307Z,5.43
2022-09-20T09:19:48.339Z,5.18
2022-09-20T09:22:32.954Z,6.18
2022-09-20T09:25:14.769Z,4.22
2022-09-20T09:27:51.905Z,5.72
2022-09-20T09:30:33.637Z,5.88
2022-09-20T09:33:32.150Z,5.30
2022-09-20T09:36:15.529Z,5.22
2022-09-20T09:38:48.061Z,4.95
2022-09-20T09:41:17.773Z,4.65
2022-09-20T09:43:59.347Z,10.52
2022-09-20T09:46:27.496Z,7.00
2022-09-20T09:49:11.496Z,2.65
2022-09-20T09:51:39.346Z,5.15
2022-09-20T09:54:08.402Z,6.10
2022-09-20T09:56:50.283Z,7.43
2022-09-20T09:59:42.363Z,3.95
2022-09-20T10:02:13.100Z,2.05
2022-09-20T10:04:52.462Z,4.72
2022-09-20T10:07:38.221Z,3.13
2022-09-20T10:10:53.423Z,4.10
2022-09-20T10:13:41.977Z,4.40
2022-09-20T10:16:49.911Z,4.25
2022-09-20T10:19:33.361Z,2.35
2022-09-20T10:22:19.669Z,6.28
2022-09-20T10:25:10.551Z,3.22
2022-09-20T10:28:12.513Z,7.03
2022-09-20T10:30:58.337Z,6.13
2022-09-20T10:33:52.193Z,5.40
2022-09-20T10:36:28.516Z,2.53
2022-09-20T10:39:02.219Z,3.28
2022-09-20T10:42:28.925Z,6.00
2022-09-20T10:46:08.432Z,2.22
2022-09-20T10:48:26.644Z,7.45
2022-09-20T10:51:32.413Z,2.72
2022-09-20T10:54:21.125Z,1.23
2022-09-20T10:56:51.731Z,5.35
2022-09-20T10:59:42.800Z,3.85
2022-09-20T11:02:18.526Z,4.32
2022-09-20T11:04:51.159Z,4.60
2022-09-20T11:07:27.055Z,2.17
2022-09-20T11:10:04.975Z,2.42
2022-09-20T11:12:39.793Z,3.67
2022-09-20T11:15:26.752Z,3.22
2022-09-20T11:18:02.060Z,4.60
2022-09-20T11:20:32.564Z,5.07
2022-09-20T11:23:04.178Z,4.07
2022-09-20T11:25:37.754Z,2.90
2022-09-20T11:28:21.505Z,2.30
2022-09-20T11:31:04.333Z,2.75
2022-09-20T11:33:41.469Z,3.58
2022-09-20T11:36:15.472Z,2.65
2022-09-20T11:39:13.681Z,4.85
2022-09-20T11:41:42.222Z,4.05
2022-09-20T11:44:12.664Z,4.63
2022-09-20T11:47:02.652Z,3.25
2022-09-20T11:49:39.865Z,3.30
2022-09-20T11:52:38.681Z,5.60
2022-09-20T11:55:32.426Z,4.40
2022-09-20T11:58:05.431Z,5.88
2022-09-20T12:00:38.847Z,3.28
2022-09-20T12:03:15.245Z,3.78
2022-09-20T12:05:42.277Z,2.33
2022-09-20T12:08:22.120Z,2.05
2022-09-20T12:11:11.261Z,5.43
2022-09-20T12:13:42.738Z,5.28
2022-09-20T12:16:15.981Z,1.42
2022-09-20T12:18:55.052Z,1.95
2022-09-20T12:21:22.454Z,2.92
2022-09-20T12:23:58.121Z,4.85
2022-09-20T12:26:27.792Z,1.23
2022-09-20T12:28:54.379Z,5.10
2022-09-20T12:31:31.863Z,3.22
2022-09-20T12:34:04.813Z,2.33
2022-09-20T12:36:36.379Z,3.63
2022-09-20T12:39:13.613Z,1.85
2022-09-20T12:41:46.944Z,2.05
2022-09-20T12:44:40.998Z,2.47
2022-09-20T12:47:10.577Z,1.88
2022-09-20T12:49:56.844Z,1.88
2022-09-20T12:52:45.278Z,5.43
2022-09-20T12:55:32.315Z,6.65
2022-09-20T12:58:12.246Z,3.08
2022-09-20T13:00:49.522Z,3.15
2022-09-20T13:03:24.751Z,3.92
2022-09-20T13:06:19.193Z,2.47
2022-09-20T13:09:01.026Z,2.95
2022-09-20T13:11:50.971Z,5.00
2022-09-20T13:14:22.859Z,2.25
2022-09-20T13:16:54.373Z,3.97
2022-09-20T13:19:22.533Z,1.65
2022-09-20T13:22:14.974Z,3.50
2022-09-20T13:24:49.937Z,2.83
2022-09-20T13:27:23.338Z,6.50
2022-09-20T13:29:51.105Z,3.42
2022-09-20T13:32:26.935Z,4.05
2022-09-20T13:35:12.614Z,4.78
2022-09-20T13:37:57.916Z,3.10
2022-09-20T13:40:24.571Z,1.95
2022-09-20T13:43:22.259Z,4.28
2022-09-20T13:45:47.072Z,3.50
2022-09-20T13:48:16.695Z,2.95
2022-09-20T13:50:48.024Z,4.00
2022-09-20T13:53:39.436Z,3.42
2022-09-20T13:56:11.869Z,3.58
2022-09-20T13:58:38.638Z,4.60
2022-09-20T14:01:09.239Z,3.35
2022-09-20T14:03:36.382Z,2.78
2022-09-20T14:06:08.538Z,3.70
2022-09-20T14:08:38.215Z,3.28
2022-09-20T14:11:27.145Z,2.75
2022-09-20T14:13:56.606Z,3.30
2022-09-20T14:16:30.919Z,0.85
2022-09-20T14:18:58.711Z,4.60
2022-09-20T14:21:27.730Z,4.38
2022-09-20T14:24:07.620Z,9.48
2022-09-20T14:26:36.484Z,2.47
2022-09-20T14:29:31.919Z,2.67
2022-09-20T14:32:00.948Z,5.10
2022-09-20T14:34:27.795Z,2.10
2022-09-20T14:37:03.287Z,3.45
2022-09-20T14:39:32.024Z,2.45
2022-09-20T14:41:58.938Z,3.38
2022-09-20T14:44:32.306Z,1.88
2022-09-20T14:47:00.481Z,7.57
2022-09-20T14:49:27.016Z,2.40
2022-09-20T14:52:28.516Z,4.05
2022-09-20T14:55:13.475Z,3.97
2022-09-20T14:57:41.548Z,3.85
2022-09-20T15:00:12.402Z,2.83
2022-09-20T15:02:42.320Z,6.60
2022-09-20T15:05:23.836Z,5.57
2022-09-20T15:07:50.824Z,4.63
2022-09-20T15:10:17.706Z,2.30
2022-09-20T15:12:44.370Z,4.45
2022-09-20T15:15:16.029Z,5.65
2022-09-20T15:17:43.300Z,1.92
2022-09-20T15:20:16.746Z,3.53
2022-09-20T15:22:46.471Z,2.42
2022-09-20T15:25:16.336Z,1.52
2022-09-20T15:27:46.554Z,2.25
2022-09-20T15:30:17.208Z,6.35
2022-09-20T15:32:45.854Z,6.30
2022-09-20T15:35:14.156Z,1.92
2022-09-20T15:37:41.030Z,1.73
2022-09-20T15:40:11.311Z,1.30
2022-09-20T15:42:38.290Z,2.83
2022-09-20T15:45:11.502Z,2.83
2022-09-20T15:47:44.852Z,1.55
2022-09-20T15:50:12.255Z,3.70
2022-09-20T15:52:40.699Z,0.98
2022-09-20T15:55:08.756Z,3.28
2022-09-20T15:57:39.522Z,4.38
2022-09-20T16:00:07.189Z,4.78
2022-09-20T16:02:39.500Z,3.15
2022-09-20T16:05:06.774Z,3.08
2022-09-20T16:07:42.680Z,2.67
2022-09-20T16:10:09.474Z,3.05
2022-09-20T16:12:37.741Z,1.35
2022-09-20T16:15:04.974Z,3.47
2022-09-20T16:17:50.786Z,5.82
2022-09-20T16:20:17.457Z,2.53
2022-09-20T16:22:44.151Z,6.03
2022-09-20T16:25:11.337Z,3.92
2022-09-20T16:27:38.241Z,3.80
2022-09-20T16:30:07.747Z,5.20
2022-09-20T16:32:35.697Z,4.78
2022-09-20T16:35:07.962Z,8.63
2022-09-20T16:37:36.890Z,4.57
2022-09-20T16:40:04.042Z,15.98
2022-09-20T16:42:31.824Z,4.55
2022-09-20T16:44:59.858Z,5.68
2022-09-20T16:47:29.723Z,9.20
2022-09-20T16:49:58.495Z,6.93
2022-09-20T16:52:36.184Z,7.18
2022-09-20T16:55:04.999Z,4.13
2022-09-20T16:57:36.191Z,6.78
2022-09-20T17:00:03.275Z,5.90
2022-09-20T17:02:30.290Z,9.45
2022-09-20T17:04:59.191Z,5.20
2022-09-20T17:07:25.947Z,5.15
2022-09-20T17:10:02.925Z,5.40
2022-09-20T17:12:42.375Z,4.60
2022-09-20T17:15:21.707Z,3.90
2022-09-20T17:17:48.516Z,5.88
2022-09-20T17:20:33.877Z,6.60
2022-09-20T17:23:50.039Z,4.70
2022-09-20T17:26:27.326Z,6.70
2022-09-20T17:29:06.678Z,6.15
2022-09-20T17:34:21.779Z,5.72
2022-09-20T17:36:50.918Z,9.85
2022-09-20T17:39:18.336Z,19.20
2022-09-20T17:41:46.788Z,13.85
2022-09-20T17:44:14.324Z,9.32
2022-09-20T17:46:43.279Z,14.90
2022-09-20T17:49:18.111Z,11.00
2022-09-20T17:51:53.154Z,17.02
2022-09-20T17:54:20.275Z,12.95
2022-09-20T17:56:48.867Z,10.13
2022-09-20T17:59:17.965Z,13.07
2022-09-20T18:01:46.210Z,11.23
2022-09-20T18:04:13.053Z,13.20
2022-09-20T18:06:44.651Z,13.90
2022-09-20T18:09:16.486Z,14.38
2022-09-20T18:11:49.939Z,22.95
2022-09-20T18:14:27.474Z,28.80
2022-09-20T18:16:57.939Z,17.95
2022-09-20T18:19:34.069Z,18.55
2022-09-20T18:22:02.772Z,16.70
2022-09-20T18:24:35.702Z,14.13
2022-09-20T18:27:04.057Z,16.40
2022-09-20T18:29:36.836Z,20.25
2022-09-20T18:32:04.376Z,18.73
2022-09-20T18:34:34.768Z,20.35
2022-09-20T18:37:03.742Z,22.02
2022-09-20T18:39:35.360Z,17.90
2022-09-20T18:42:03.809Z,23.27
2022-09-20T18:44:34.507Z,22.05
2022-09-20T18:47:10.267Z,30.25
2022-09-20T18:49:36.924Z,22.52
2022-09-20T18:52:05.026Z,28.70
2022-09-20T18:54:33.583Z,22.55
2022-09-20T18:57:00.794Z,22.42
2022-09-20T18:59:28.128Z,41.83
2022-09-20T19:02:07.267Z,40.33
2022-09-20T19:05:17.216Z,42.35
2022-09-20T19:10:43.924Z,41.70
2022-09-20T19:13:24.417Z,29.08
2022-09-20T19:16:03.173Z,29.23
2022-09-20T19:18:47.869Z,33.92
2022-09-20T19:21:36.271Z,31.50
2022-09-20T19:24:30.308Z,35.63
2022-09-20T19:26:57.352Z,32.13
2022-09-20T19:29:28.718Z,37.80
2022-09-20T19:32:00.941Z,35.13
2022-09-20T19:34:32.366Z,37.47
2022-09-20T19:37:08.537Z,31.35
2022-09-20T19:40:03.632Z,34.55
2022-09-20T19:42:50.271Z,36.15
2022-09-20T19:45:44.602Z,36.53
2022-09-20T19:48:25.485Z,30.88
2022-09-20T19:50:56.155Z,31.75
2022-09-20T19:53:27.803Z,32.33
2022-09-20T19:56:16.879Z,25.25
2022-09-20T19:58:47.440Z,30.95
2022-09-20T20:01:15.000Z,28.13
2022-09-20T20:03:46.932Z,27.27
2022-09-20T20:07:16.643Z,28.38
2022-09-20T20:09:57.352Z,24.83
2022-09-20T20:12:47.078Z,17.73
2022-09-20T20:15:47.002Z,19.60
2022-09-20T20:18:28.264Z,17.42
2022-09-20T20:20:56.868Z,25.05
2022-09-20T20:23:39.742Z,22.80
2022-09-20T20:26:09.641Z,19.23
2022-09-20T20:28:39.954Z,29.00
2022-09-20T20:31:12.601Z,31.75
2022-09-20T20:33:40.059Z,24.65
2022-09-20T20:36:11.681Z,18.67
2022-09-20T20:38:40.606Z,25.58
2022-09-20T20:41:09.901Z,24.23
2022-09-20T20:43:42.130Z,32.25
2022-09-20T20:46:11.752Z,30.63
2022-09-20T20:48:38.490Z,23.55
2022-09-20T20:51:13.207Z,26.92
2022-09-20T20:53:44.871Z,23.17
2022-09-20T20:56:17.112Z,22.45
2022-09-20T20:58:44.881Z,19.90
2022-09-20T21:01:23.413Z,21.75
2022-09-20T21:03:52.339Z,15.93
2022-09-20T21:06:19.901Z,13.25
2022-09-20T21:08:52.834Z,19.35
2022-09-20T21:11:37.412Z,20.42
2022-09-20T21:14:08.111Z,14.45
2022-09-20T21:16:42.386Z,19.73
2022-09-20T21:19:12.863Z,18.70
2022-09-20T21:21:44.027Z,15.73
2022-09-20T21:24:12.830Z,12.10
2022-09-20T21:26:39.994Z,11.77
2022-09-20T21:29:12.159Z,14.40
2022-09-20T21:31:40.800Z,14.07
2022-09-20T21:34:08.506Z,13.40
2022-09-20T21:36:36.341Z,15.73
2022-09-20T21:39:03.742Z,15.70
2022-09-20T21:41:32.661Z,23.98
2022-09-20T21:44:01.121Z,20.63
2022-09-20T21:46:33.231Z,23.65
2022-09-20T21:49:01.603Z,20.85
2022-09-20T21:51:31.109Z,19.75
2022-09-20T21:54:01.519Z,22.85
2022-09-20T21:56:33.483Z,25.05
2022-09-20T21:59:02.513Z,21.20
2022-09-20T22:01:33.612Z,22.02
2022-09-20T22:04:01.765Z,27.70
2022-09-20T22:06:30.549Z,32.10
2022-09-20T22:09:05.382Z,26.98
2022-09-20T22:11:42.011Z,26.33
2022-09-20T22:14:09.804Z,25.88
2022-09-20T22:16:38.580Z,22.90
2022-09-20T22:19:06.184Z,24.58
2022-09-20T22:21:37.594Z,27.00
2022-09-20T22:24:06.221Z,24.02
2022-09-20T22:26:35.951Z,31.40
2022-09-20T22:29:04.214Z,26.60
2022-09-20T22:31:32.518Z,26.58
2022-09-20T22:34:01.996Z,22.65
2022-09-20T22:36:30.948Z,22.88
2022-09-20T22:38:57.751Z,29.25
2022-09-20T22:41:25.147Z,20.48
2022-09-20T22:43:53.530Z,23.83
2022-09-20T22:46:22.313Z,21.50
2022-09-20T22:48:49.097Z,21.70
2022-09-20T22:51:17.867Z,19.50
2022-09-20T22:53:46.261Z,12.85
2022-09-20T22:56:15.021Z,15.57
2022-09-20T22:58:44.264Z,21.42
2022-09-20T23:01:10.944Z,18.15
2022-09-20T23:03:39.082Z,22.35
2022-09-20T23:06:16.050Z,17.52
2022-09-20T23:08:43.075Z,22.35
2022-09-20T23:11:10.381Z,20.10
2022-09-20T23:13:37.115Z,17.38
2022-09-20T23:16:15.993Z,16.90
2022-09-20T23:18:42.766Z,18.23
2022-09-20T23:21:09.508Z,19.52
2022-09-20T23:23:36.643Z,17.88
2022-09-20T23:26:08.540Z,18.95
2022-09-20T23:28:36.510Z,16.77
2022-09-20T23:31:08.785Z,14.18
2022-09-20T23:33:36.023Z,17.23
2022-09-20T23:36:07.239Z,17.90
2022-09-20T23:38:33.917Z,19.75
2022-09-20T23:41:08.852Z,15.80
2022-09-20T23:43:36.610Z,13.48
2022-09-20T23:46:04.319Z,18.50
2022-09-20T23:48:31.351Z,11.70
2022-09-20T23:50:58.193Z,13.68
2022-09-20T23:53:25.103Z,20.40
2022-09-20T23:55:51.674Z,12.68
2022-09-20T23:58:18.396Z,17.23
